Página principal
METAR-TAF:

METAR-TAF

Aeroportos :

Rabat, Marrocos

latitude: 34-03N, longitude: 006-46W, altura: 84 m

Observação actual do tempo

O boletim foi feito há 39 minutos, às 07:30 UTC
Vento 2 kt com direcção variável
Temperatura 20°C
Humidade 68%
Pressão 1017 hPa
Visibilidade: 7000 m
Encobertoa uma altura de 2600 ft

METAR: GMME 250730Z VRB02KT 7000 OVC026 20/14 Q1017 NOSIG

Hora: 09:09 (08:09 UTC)

Previsão

O boletim foi feito há 3 horas e 9 minutos, às 05:00 UTC
Previsão válida de 25 às 06 UTC a 26 às 12 UTC
Vento 2 kt com direcção variável
Visibilidade: 5000 m
Encobertoa uma altura de 2300 ft
Tornando-se
de 25 às 08 UTC a 25 às 12 UTC
Vento 8 kt de noroeste
Nuvens dispersasa uma altura de 1000 ft
Nuvens fragmentadasa uma altura de 3000 ft
Temporariamente
de 25 às 12 UTC a 25 às 18 UTC
Visibilidade 10 km ou mais
sem nuvens abaixo de 1500 metros e sem cumulonimbus

TAF: GMME 250500Z 2506/2612 VRB02KT 5000 OVC023 BECMG 2508/2512 32008KT SCT010 BKN030 TEMPO 2512/2518 CAVOK

Observações e previsões do tempo de mais de 4000 aeroportos (mensagens METAR e TAF).

As estações disponíveis são os pontos amarelos e vermelhos sobre o mapa.

Mova o rato sobre o mapa para ver o nome da estação.

Depois clique no ponto para visualizar as observações e previsões meteorológicas.

Para alterar o mapa : clique nos botões verdes com uma cruz preta para aumentar o zoom; no botão verde com uma pitada de zoom; ou nas setas verdes para mapas adjacentes.


METAR-TAF: